Time;durP1;ratioP1;P1;durP2;ratioP2;P2;SDS_P1;SDS_P2;PMS_P1;PMS_P2;Temp;Humidity;BMP_temperature;BMP_pressure;BME280_temperature;BME280_humidity;BME280_pressure;Samples;Min_cycle;Max_cycle;Signal;HPM_P1;HPM_P2
2022/02/01 00:01:31;;;;;;;0.30;0.30;;;5.40;99.90;;;;;;5063011;28;20293;-78
2022/02/01 00:04:01;;;;;;;0.10;0.10;;;5.30;99.90;;;;;;5060885;28;20296;-78
2022/02/01 00:06:40;;;;;;;0.00;0.00;;;5.20;99.90;;;;;;5064364;28;20589;-78
2022/02/01 00:09:55;;;;;;;0.00;0.00;;;5.10;99.90;;;;;;5065098;28;20181;-82
2022/02/01 00:12:14;;;;;;;0.00;0.00;;;5.10;99.90;;;;;;5063245;28;20263;-81
2022/02/01 00:41:30;;;;;;;0.10;0.10;;;4.90;99.90;;;;;;5066935;28;20666;-81
2022/02/01 00:43:56;;;;;;;0.20;0.20;;;4.90;99.90;;;;;;5067258;28;20173;-80
2022/02/01 00:46:21;;;;;;;0.30;0.30;;;4.90;99.90;;;;;;5067463;28;20199;-81
2022/02/01 00:48:47;;;;;;;0.13;0.13;;;4.90;99.90;;;;;;5068336;28;20185;-81
2022/02/01 00:51:13;;;;;;;0.20;0.20;;;4.90;99.90;;;;;;5063777;28;20567;-81
2022/02/01 00:53:42;;;;;;;0.10;0.10;;;4.90;99.90;;;;;;5066961;28;20262;-81
2022/02/01 00:56:09;;;;;;;0.20;0.20;;;4.90;99.90;;;;;;5065749;28;20189;-80
2022/02/01 00:58:35;;;;;;;3.83;0.40;;;4.90;99.90;;;;;;5064754;28;20195;-81
2022/02/01 01:01:00;;;;;;;0.10;0.10;;;4.90;99.90;;;;;;5064947;28;20507;-81
2022/02/01 01:03:26;;;;;;;0.40;0.40;;;4.90;99.90;;;;;;5067876;28;20674;-81
2022/02/01 01:05:53;;;;;;;0.40;0.40;;;4.80;99.90;;;;;;5067631;28;21072;-81
2022/02/01 01:08:19;;;;;;;0.20;0.20;;;4.80;99.90;;;;;;5067224;28;20216;-81
2022/02/01 01:10:45;;;;;;;0.10;0.10;;;4.80;99.90;;;;;;5068234;28;20629;-81
2022/02/01 01:15:59;;;;;;;4.23;0.60;;;4.90;99.90;;;;;;5067073;28;20184;-81
2022/02/01 01:46:07;;;;;;;0.10;0.10;;;4.70;99.90;;;;;;5064586;28;20263;-78
2022/02/01 01:53:59;;;;;;;0.10;0.10;;;4.70;99.90;;;;;;5068796;28;20216;-78
2022/02/01 01:56:25;;;;;;;0.10;0.10;;;4.60;99.90;;;;;;5064632;28;20656;-78
2022/02/01 01:58:51;;;;;;;0.47;0.47;;;4.70;99.90;;;;;;5064169;28;20198;-78
2022/02/01 02:01:16;;;;;;;3.60;0.23;;;4.70;99.90;;;;;;5063103;28;20238;-78
2022/02/01 02:03:47;;;;;;;0.00;0.00;;;4.80;99.90;;;;;;5063639;28;20184;-78
2022/02/01 02:06:14;;;;;;;0.50;0.50;;;4.70;99.90;;;;;;5064135;28;20193;-79
2022/02/01 02:08:44;;;;;;;1.20;0.73;;;4.70;99.90;;;;;;5064217;28;20243;-79
2022/02/01 02:11:14;;;;;;;1.40;0.40;;;4.70;99.90;;;;;;5064336;28;20201;-78
2022/02/01 02:16:35;;;;;;;0.10;0.10;;;4.60;99.90;;;;;;5064165;28;20190;-79
2022/02/01 02:19:02;;;;;;;0.00;0.00;;;4.60;99.90;;;;;;5071854;28;20606;-78
2022/02/01 02:21:27;;;;;;;0.10;0.10;;;4.50;99.90;;;;;;5063660;28;20693;-78
2022/02/01 02:23:53;;;;;;;5.10;0.30;;;4.60;99.90;;;;;;5066423;28;20195;-78
2022/02/01 02:26:19;;;;;;;0.20;0.20;;;4.50;99.90;;;;;;5061823;28;21242;-78
2022/02/01 02:28:46;;;;;;;0.10;0.10;;;4.50;99.90;;;;;;5063720;28;20208;-80
2022/02/01 02:31:12;;;;;;;0.73;0.73;;;4.50;99.90;;;;;;5065732;28;20203;-79
2022/02/01 02:33:38;;;;;;;0.77;0.20;;;4.50;99.90;;;;;;5061530;28;20565;-79
2022/02/01 02:36:14;;;;;;;0.20;0.20;;;4.50;99.90;;;;;;5064552;28;20201;-78
2022/02/01 02:38:44;;;;;;;0.87;0.87;;;4.40;99.90;;;;;;5064527;28;20656;-78
2022/02/01 02:46:43;;;;;;;0.00;0.00;;;4.40;99.90;;;;;;5064857;28;20187;-78
2022/02/01 02:49:12;;;;;;;0.83;0.43;;;4.50;99.90;;;;;;5063755;28;20190;-79
2022/02/01 02:51:38;;;;;;;0.20;0.20;;;4.50;99.90;;;;;;5062938;28;20219;-79
2022/02/01 02:54:05;;;;;;;0.20;0.20;;;4.50;99.90;;;;;;5066365;28;21565;-78
2022/02/01 02:56:31;;;;;;;2.27;0.30;;;4.50;99.90;;;;;;5068142;28;20234;-78
2022/02/01 02:58:57;;;;;;;0.13;0.13;;;4.50;99.90;;;;;;5064835;28;20199;-78
2022/02/01 03:01:23;;;;;;;0.77;0.20;;;4.50;99.90;;;;;;5064134;28;20627;-78
2022/02/01 03:03:48;;;;;;;4.17;0.53;;;4.40;99.90;;;;;;5064315;28;21122;-78
2022/02/01 03:06:14;;;;;;;1.80;1.33;;;4.30;99.90;;;;;;5063833;28;20979;-78
2022/02/01 03:08:39;;;;;;;0.00;0.00;;;4.30;99.90;;;;;;5064926;28;20899;-79
2022/02/01 03:11:11;;;;;;;0.63;0.63;;;4.30;99.90;;;;;;5064793;28;20213;-78
2022/02/01 03:13:38;;;;;;;0.07;0.07;;;4.30;99.90;;;;;;5063169;28;20201;-78
2022/02/01 03:21:20;;;;;;;0.13;0.13;;;4.20;99.90;;;;;;5063111;28;20621;-79
2022/02/01 03:23:45;;;;;;;0.50;0.50;;;4.30;99.90;;;;;;5061684;28;20193;-79
2022/02/01 03:26:11;;;;;;;0.00;0.00;;;4.30;99.90;;;;;;5063010;28;20247;-80
2022/02/01 03:28:37;;;;;;;1.77;0.20;;;4.20;99.90;;;;;;5063655;28;20189;-79
2022/02/01 03:31:02;;;;;;;2.40;0.40;;;4.30;99.90;;;;;;5063653;28;20204;-79
2022/02/01 03:33:28;;;;;;;0.57;0.50;;;4.30;99.90;;;;;;5064001;28;20207;-79
2022/02/01 03:35:53;;;;;;;0.10;0.10;;;4.30;99.90;;;;;;5060773;28;20197;-79
2022/02/01 03:38:19;;;;;;;0.77;0.77;;;4.30;99.90;;;;;;5063104;28;20717;-79
2022/02/01 03:40:44;;;;;;;0.97;0.27;;;4.30;99.90;;;;;;5063791;28;20254;-79
2022/02/01 03:43:10;;;;;;;0.77;0.77;;;4.30;99.90;;;;;;5064376;28;20669;-79
2022/02/01 03:45:35;;;;;;;0.10;0.10;;;4.30;99.90;;;;;;5060866;28;20655;-83
2022/02/01 03:48:01;;;;;;;0.20;0.20;;;4.40;99.90;;;;;;5064600;28;20177;-82
2022/02/01 03:50:26;;;;;;;0.10;0.10;;;4.40;99.90;;;;;;5060936;28;20261;-82
2022/02/01 03:52:53;;;;;;;0.10;0.10;;;4.40;99.90;;;;;;5063128;28;20191;-82
2022/02/01 03:55:19;;;;;;;0.40;0.40;;;4.40;99.90;;;;;;5063808;28;20211;-81
2022/02/01 03:57:45;;;;;;;0.67;0.63;;;4.40;99.90;;;;;;5061783;28;20754;-83
2022/02/01 04:00:11;;;;;;;0.20;0.20;;;4.40;99.90;;;;;;5064611;28;20275;-82
2022/02/01 04:02:37;;;;;;;0.10;0.10;;;4.40;99.90;;;;;;5072601;28;20673;-82
2022/02/01 04:05:03;;;;;;;1.20;0.73;;;4.50;99.90;;;;;;5063643;28;20191;-82
2022/02/01 04:07:28;;;;;;;0.20;0.20;;;4.50;99.90;;;;;;5060691;28;20600;-82
2022/02/01 04:09:54;;;;;;;0.20;0.20;;;4.40;99.90;;;;;;5062471;28;20279;-81
2022/02/01 04:12:20;;;;;;;0.10;0.10;;;4.40;99.90;;;;;;5064234;28;20212;-81
2022/02/01 04:14:46;;;;;;;0.10;0.10;;;4.40;99.90;;;;;;5062505;28;20256;-79
2022/02/01 04:17:12;;;;;;;0.10;0.10;;;4.30;99.90;;;;;;5062195;28;20177;-82
2022/02/01 04:19:38;;;;;;;0.17;0.17;;;4.40;99.90;;;;;;5063143;28;20192;-80
2022/02/01 04:22:06;;;;;;;0.37;0.37;;;4.40;99.90;;;;;;5062547;28;20289;-80
2022/02/01 04:24:37;;;;;;;0.10;0.10;;;4.40;99.90;;;;;;5063383;28;20181;-80
2022/02/01 04:27:04;;;;;;;0.10;0.10;;;4.40;99.90;;;;;;5062850;28;20177;-80
2022/02/01 04:29:30;;;;;;;0.10;0.10;;;4.40;99.90;;;;;;5063889;28;20199;-79
2022/02/01 04:31:56;;;;;;;0.97;0.37;;;4.40;99.90;;;;;;5060533;28;20208;-82
2022/02/01 04:34:21;;;;;;;0.27;0.27;;;4.40;99.90;;;;;;5063517;28;20242;-80
2022/02/01 04:36:47;;;;;;;0.67;0.30;;;4.40;99.90;;;;;;5062567;28;20548;-81
2022/02/01 04:39:13;;;;;;;0.10;0.10;;;4.40;99.90;;;;;;5063622;28;20191;-80
2022/02/01 04:41:39;;;;;;;0.00;0.00;;;4.40;99.90;;;;;;5060562;28;20208;-80
2022/02/01 04:44:04;;;;;;;0.30;0.30;;;4.40;99.90;;;;;;5061663;28;20180;-79
2022/02/01 04:46:30;;;;;;;2.97;0.40;;;4.30;99.90;;;;;;5059947;28;20188;-79
2022/02/01 04:49:05;;;;;;;0.00;0.00;;;4.30;99.90;;;;;;5050885;28;20196;-78
2022/02/01 04:51:30;;;;;;;1.80;0.87;;;4.30;99.90;;;;;;5057079;28;20545;-79
2022/02/01 04:53:57;;;;;;;0.10;0.10;;;4.30;99.90;;;;;;5068705;28;20305;-79
2022/02/01 04:56:23;;;;;;;0.10;0.10;;;4.30;99.90;;;;;;5066347;28;20181;-78
2022/02/01 04:58:48;;;;;;;0.10;0.10;;;4.40;99.90;;;;;;5067278;28;20563;-80
2022/02/01 05:01:14;;;;;;;0.10;0.10;;;4.40;99.90;;;;;;5066419;28;20203;-78
2022/02/01 05:03:40;;;;;;;0.10;0.10;;;4.40;99.90;;;;;;5066593;28;20190;-80
2022/02/01 05:06:07;;;;;;;1.50;1.03;;;4.40;99.90;;;;;;5067034;28;20212;-78
2022/02/01 05:08:33;;;;;;;0.20;0.20;;;4.50;99.90;;;;;;5066118;28;20186;-78
2022/02/01 05:10:59;;;;;;;0.03;0.03;;;4.40;99.90;;;;;;5065317;28;20199;-79
2022/02/01 05:16:08;;;;;;;0.30;0.30;;;4.40;99.90;;;;;;5065472;28;20661;-79
2022/02/01 05:19:02;;;;;;;1.53;1.03;;;4.40;99.90;;;;;;5065224;28;20199;-78
2022/02/01 05:21:24;;;;;;;1.23;0.77;;;4.40;99.90;;;;;;5066457;28;20203;-79
2022/02/01 05:23:51;;;;;;;0.20;0.20;;;4.30;99.90;;;;;;5065039;28;20259;-78
2022/02/01 05:26:19;;;;;;;0.60;0.60;;;4.20;99.90;;;;;;5067279;28;20442;-79
2022/02/01 05:28:44;;;;;;;0.00;0.00;;;4.20;99.90;;;;;;5060367;28;20181;-79
2022/02/01 05:31:10;;;;;;;1.80;0.20;;;4.20;99.90;;;;;;5063563;28;20215;-80
2022/02/01 05:33:36;;;;;;;0.97;0.97;;;4.10;99.90;;;;;;5067369;28;20216;-79
2022/02/01 05:36:04;;;;;;;0.10;0.10;;;4.20;99.90;;;;;;5063485;28;20180;-78
2022/02/01 05:38:30;;;;;;;0.20;0.20;;;4.10;99.90;;;;;;5063314;28;20294;-79
2022/02/01 05:40:56;;;;;;;0.20;0.20;;;4.20;99.90;;;;;;5063450;28;20201;-78
2022/02/01 05:43:26;;;;;;;3.30;0.40;;;4.10;99.90;;;;;;5067230;28;20179;-79
2022/02/01 05:45:55;;;;;;;0.60;0.60;;;4.20;99.90;;;;;;5066380;28;20177;-79
2022/02/01 05:48:21;;;;;;;0.00;0.00;;;4.20;99.90;;;;;;5064789;28;20567;-78
2022/02/01 05:50:51;;;;;;;0.00;0.00;;;4.20;99.90;;;;;;5063042;28;20299;-78
2022/02/01 05:53:17;;;;;;;0.20;0.20;;;4.20;99.90;;;;;;5064489;28;20235;-79
2022/02/01 05:55:43;;;;;;;0.00;0.00;;;4.20;99.90;;;;;;5062792;28;20270;-79
2022/02/01 05:58:10;;;;;;;0.10;0.10;;;4.30;99.90;;;;;;5063121;28;20231;-79
2022/02/01 06:00:36;;;;;;;0.50;0.50;;;4.20;99.90;;;;;;5063320;28;20239;-78
2022/02/01 06:03:01;;;;;;;0.07;0.07;;;4.20;99.90;;;;;;5064365;28;20220;-79
2022/02/01 06:05:28;;;;;;;0.17;0.17;;;4.20;99.90;;;;;;5064957;28;20238;-79
2022/02/01 06:07:55;;;;;;;2.77;0.30;;;4.20;99.90;;;;;;5067341;28;20181;-79
2022/02/01 06:10:25;;;;;;;0.50;0.50;;;4.20;99.90;;;;;;5079618;28;20189;-78
2022/02/01 06:12:51;;;;;;;0.27;0.27;;;4.10;99.90;;;;;;5063874;28;20179;-78
2022/02/01 06:15:19;;;;;;;0.30;0.30;;;4.20;99.90;;;;;;5062870;28;20202;-78
2022/02/01 06:17:45;;;;;;;1.33;1.23;;;4.20;99.90;;;;;;5062395;28;20230;-79
2022/02/01 06:20:13;;;;;;;0.10;0.10;;;4.10;99.90;;;;;;5069732;28;20186;-80
2022/02/01 06:22:39;;;;;;;1.70;0.37;;;4.10;99.90;;;;;;5064338;28;20201;-79
2022/02/01 06:25:06;;;;;;;1.90;0.10;;;4.10;99.90;;;;;;5064820;28;20188;-79
2022/02/01 06:27:32;;;;;;;1.50;0.77;;;4.10;99.90;;;;;;5062725;28;20180;-80
2022/02/01 06:29:57;;;;;;;0.00;0.00;;;4.10;99.90;;;;;;5066471;28;20203;-79
2022/02/01 06:32:24;;;;;;;0.00;0.00;;;4.10;99.90;;;;;;5062044;28;20660;-81
2022/02/01 06:34:49;;;;;;;0.10;0.10;;;4.10;99.90;;;;;;5066510;28;20204;-79
2022/02/01 06:37:15;;;;;;;0.50;0.50;;;4.10;99.90;;;;;;5061186;28;20709;-79
2022/02/01 06:39:41;;;;;;;1.10;0.63;;;4.10;99.90;;;;;;5061154;28;20195;-79
2022/02/01 06:42:09;;;;;;;0.30;0.30;;;4.10;99.90;;;;;;5061076;28;20201;-80
2022/02/01 06:44:35;;;;;;;0.73;0.43;;;4.10;99.90;;;;;;5060953;28;20234;-79
2022/02/01 06:47:00;;;;;;;0.73;0.40;;;4.10;99.90;;;;;;5063651;28;20599;-79
2022/02/01 06:49:26;;;;;;;2.20;0.50;;;4.10;99.90;;;;;;5060606;28;20196;-79
2022/02/01 06:51:52;;;;;;;0.10;0.10;;;4.10;99.90;;;;;;5063885;28;20254;-80
2022/02/01 06:54:18;;;;;;;0.10;0.10;;;4.20;99.90;;;;;;5063903;28;20215;-79
2022/02/01 06:56:44;;;;;;;0.33;0.10;;;4.10;99.90;;;;;;5059421;28;20213;-80
2022/02/01 06:59:10;;;;;;;0.10;0.10;;;4.10;99.90;;;;;;5061909;28;20245;-79
2022/02/01 07:01:36;;;;;;;0.80;0.40;;;4.00;99.90;;;;;;5059592;28;20204;-80
2022/02/01 07:04:03;;;;;;;0.10;0.10;;;4.00;99.90;;;;;;5062997;28;20191;-80
2022/02/01 07:06:34;;;;;;;0.17;0.17;;;4.00;99.90;;;;;;5059552;28;20283;-79
2022/02/01 07:09:05;;;;;;;0.10;0.10;;;4.00;99.90;;;;;;5060145;28;20195;-78
2022/02/01 07:11:31;;;;;;;1.47;0.70;;;4.00;99.90;;;;;;5059093;28;20689;-79
2022/02/01 07:13:58;;;;;;;0.90;0.90;;;4.00;99.90;;;;;;5062785;28;20201;-79
2022/02/01 07:16:24;;;;;;;0.10;0.10;;;4.00;99.90;;;;;;5062192;28;20234;-82
2022/02/01 07:18:50;;;;;;;0.10;0.10;;;4.10;99.90;;;;;;5064617;28;20181;-83
2022/02/01 07:21:16;;;;;;;0.10;0.10;;;4.10;99.90;;;;;;5066461;28;20256;-82
2022/02/01 07:23:43;;;;;;;0.27;0.27;;;4.10;99.90;;;;;;5068093;28;20876;-82
2022/02/01 07:26:09;;;;;;;3.03;0.37;;;4.20;99.90;;;;;;5065941;28;20180;-82
2022/02/01 07:28:38;;;;;;;0.20;0.20;;;4.20;99.90;;;;;;5066713;28;20192;-81
2022/02/01 07:31:05;;;;;;;0.10;0.10;;;4.20;99.90;;;;;;5072800;28;20203;-83
2022/02/01 07:33:31;;;;;;;0.10;0.10;;;4.20;99.90;;;;;;5068955;28;21031;-83
2022/02/01 07:36:01;;;;;;;0.20;0.20;;;4.10;99.90;;;;;;5070451;28;20184;-81
2022/02/01 07:38:28;;;;;;;0.20;0.20;;;4.10;99.90;;;;;;5069685;28;20264;-82
2022/02/01 07:40:56;;;;;;;1.37;0.40;;;4.10;99.90;;;;;;5071093;28;20270;-83
2022/02/01 07:43:27;;;;;;;0.10;0.10;;;4.10;99.90;;;;;;5065433;28;20187;-78
2022/02/01 07:45:54;;;;;;;0.10;0.10;;;4.10;99.90;;;;;;5060756;28;20183;-78
2022/02/01 07:48:23;;;;;;;0.00;0.00;;;4.10;99.90;;;;;;5063161;28;20227;-78
2022/02/01 07:50:49;;;;;;;0.10;0.10;;;4.10;99.90;;;;;;5060167;28;20772;-79
2022/02/01 07:53:15;;;;;;;6.30;0.27;;;4.20;99.90;;;;;;5058572;28;20260;-79
2022/02/01 07:55:41;;;;;;;0.10;0.10;;;4.20;99.90;;;;;;5060445;28;20197;-79
2022/02/01 07:58:07;;;;;;;0.20;0.20;;;4.20;99.90;;;;;;5059770;28;20205;-79
2022/02/01 08:00:36;;;;;;;0.77;0.77;;;4.30;99.90;;;;;;5059465;28;20194;-78
2022/02/01 08:03:02;;;;;;;0.10;0.10;;;4.30;99.90;;;;;;5060186;28;20184;-79
2022/02/01 08:05:30;;;;;;;0.10;0.10;;;4.30;99.90;;;;;;5061400;28;20641;-79
2022/02/01 08:08:02;;;;;;;0.30;0.30;;;4.40;99.90;;;;;;5056084;28;20196;-80
2022/02/01 08:10:35;;;;;;;0.10;0.10;;;4.40;99.90;;;;;;5058336;28;20218;-79
2022/02/01 08:21:05;;;;;;;0.10;0.10;;;4.50;99.90;;;;;;5064942;28;20580;-79
2022/02/01 08:23:31;;;;;;;0.00;0.00;;;4.50;99.90;;;;;;5061476;28;20185;-79
2022/02/01 08:25:58;;;;;;;0.10;0.10;;;4.50;99.90;;;;;;5063245;28;20177;-79
2022/02/01 08:28:28;;;;;;;0.40;0.40;;;4.50;99.90;;;;;;5067095;28;20693;-79
2022/02/01 08:30:54;;;;;;;0.13;0.13;;;4.60;99.90;;;;;;5067890;28;20193;-79
2022/02/01 08:33:22;;;;;;;0.20;0.20;;;4.50;99.90;;;;;;5068519;28;20231;-79
2022/02/01 08:35:49;;;;;;;0.20;0.20;;;4.60;99.90;;;;;;5066067;28;20797;-79
2022/02/01 08:38:15;;;;;;;0.10;0.10;;;4.70;99.90;;;;;;5068462;28;20518;-79
2022/02/01 08:40:41;;;;;;;0.10;0.10;;;4.70;99.90;;;;;;5067746;28;21355;-79
2022/02/01 08:43:08;;;;;;;0.10;0.10;;;4.70;99.90;;;;;;5068576;28;20653;-79
2022/02/01 08:45:34;;;;;;;0.17;0.17;;;4.80;99.90;;;;;;5067130;28;20172;-79
2022/02/01 08:48:00;;;;;;;0.50;0.50;;;4.80;99.90;;;;;;5065829;28;20214;-79
2022/02/01 08:50:31;;;;;;;0.23;0.20;;;4.80;99.90;;;;;;5067609;28;20177;-79
2022/02/01 08:53:03;;;;;;;0.20;0.20;;;4.80;99.90;;;;;;5068414;28;20181;-79
2022/02/01 08:55:38;;;;;;;0.20;0.20;;;4.80;99.90;;;;;;5066022;28;20192;-80
2022/02/01 08:58:08;;;;;;;0.00;0.00;;;4.90;99.90;;;;;;5067617;28;20179;-79
2022/02/01 09:00:35;;;;;;;0.40;0.10;;;4.90;99.90;;;;;;5068215;28;20241;-79
2022/02/01 09:03:03;;;;;;;0.20;0.20;;;4.90;99.90;;;;;;5067843;28;20193;-79
2022/02/01 09:05:31;;;;;;;0.20;0.20;;;4.90;99.90;;;;;;5065746;28;20521;-79
2022/02/01 09:08:04;;;;;;;0.20;0.20;;;5.00;99.90;;;;;;5063828;28;20233;-78
2022/02/01 09:10:31;;;;;;;0.20;0.20;;;5.00;99.90;;;;;;5064266;28;20192;-79
2022/02/01 09:12:59;;;;;;;0.13;0.13;;;5.00;99.90;;;;;;5063787;28;20242;-79
2022/02/01 09:15:26;;;;;;;0.83;0.50;;;4.90;99.90;;;;;;5061823;28;20191;-78
2022/02/01 09:17:54;;;;;;;0.60;0.50;;;4.90;99.90;;;;;;5063436;28;20171;-79
2022/02/01 09:20:20;;;;;;;0.30;0.30;;;4.80;99.90;;;;;;5064410;28;20272;-79
2022/02/01 09:22:47;;;;;;;0.20;0.20;;;4.90;99.90;;;;;;5061760;28;21107;-78
2022/02/01 09:25:15;;;;;;;0.20;0.20;;;4.90;99.90;;;;;;5062478;28;20632;-78
2022/02/01 09:27:41;;;;;;;0.20;0.20;;;4.90;99.90;;;;;;5063265;28;20183;-78
2022/02/01 09:30:08;;;;;;;0.20;0.20;;;4.90;99.90;;;;;;5065161;28;20973;-78
2022/02/01 09:32:41;;;;;;;0.10;0.10;;;4.90;99.90;;;;;;5073290;28;20760;-78
2022/02/01 09:35:07;;;;;;;0.17;0.17;;;4.90;99.90;;;;;;5064910;28;20197;-79
2022/02/01 09:37:33;;;;;;;0.30;0.30;;;5.00;99.90;;;;;;5065402;28;20184;-76
2022/02/01 09:39:59;;;;;;;0.20;0.20;;;5.00;99.90;;;;;;5062599;28;20777;-77
2022/02/01 09:42:27;;;;;;;0.10;0.10;;;5.00;99.90;;;;;;5062640;28;20203;-77
2022/02/01 09:44:57;;;;;;;0.10;0.10;;;5.00;99.90;;;;;;5063184;28;20287;-77
2022/02/01 09:47:59;;;;;;;0.10;0.10;;;5.10;99.90;;;;;;5064969;28;20210;-76
2022/02/01 09:50:27;;;;;;;0.50;0.37;;;5.00;99.90;;;;;;5053736;28;20638;-77
2022/02/01 09:52:53;;;;;;;3.20;1.23;;;5.10;99.90;;;;;;5064181;28;20215;-77
2022/02/01 09:55:22;;;;;;;0.20;0.20;;;5.10;99.90;;;;;;5063232;28;20213;-76
2022/02/01 09:57:55;;;;;;;0.10;0.10;;;5.10;99.90;;;;;;5070264;28;20221;-76
2022/02/01 10:00:35;;;;;;;0.73;0.73;;;5.10;99.90;;;;;;5063709;28;20198;-77
2022/02/01 10:03:02;;;;;;;0.10;0.10;;;5.20;99.90;;;;;;5062725;28;20179;-76
2022/02/01 10:05:28;;;;;;;0.10;0.10;;;5.20;99.90;;;;;;5062768;28;20192;-77
2022/02/01 10:07:57;;;;;;;0.20;0.20;;;5.20;99.90;;;;;;5065840;28;20697;-80
2022/02/01 10:10:26;;;;;;;0.10;0.10;;;5.20;99.90;;;;;;5062465;28;20762;-79
2022/02/01 10:12:57;;;;;;;0.00;0.00;;;5.20;99.90;;;;;;5074129;28;20244;-77
2022/02/01 10:15:26;;;;;;;0.20;0.20;;;5.10;99.90;;;;;;5067627;28;20294;-77
2022/02/01 10:18:00;;;;;;;0.10;0.10;;;5.00;99.90;;;;;;5062344;28;20220;-77
2022/02/01 10:20:55;;;;;;;0.10;0.10;;;5.00;99.90;;;;;;5061645;28;20184;-78
2022/02/01 10:23:25;;;;;;;0.10;0.10;;;4.90;99.90;;;;;;5062418;28;20237;-77
2022/02/01 10:26:06;;;;;;;0.00;0.00;;;5.00;99.90;;;;;;5060488;28;20519;-77
2022/02/01 10:28:53;;;;;;;0.17;0.17;;;4.90;99.90;;;;;;5063014;28;20583;-77
2022/02/01 10:31:30;;;;;;;0.30;0.30;;;4.90;99.90;;;;;;5062088;28;20266;-77
2022/02/01 10:34:03;;;;;;;0.10;0.10;;;4.80;99.90;;;;;;5056999;28;20584;-77
2022/02/01 10:36:38;;;;;;;0.10;0.10;;;4.80;99.90;;;;;;5062962;28;20206;-77
2022/02/01 10:39:16;;;;;;;0.10;0.10;;;4.60;99.90;;;;;;5061772;28;20286;-77
2022/02/01 10:41:52;;;;;;;0.10;0.10;;;4.60;99.90;;;;;;5062573;28;20295;-77
2022/02/01 10:44:20;;;;;;;0.20;0.20;;;4.40;99.90;;;;;;5062316;28;20620;-77
2022/02/01 10:46:53;;;;;;;0.40;0.40;;;4.40;99.90;;;;;;5062333;28;20188;-77
2022/02/01 10:49:30;;;;;;;0.00;0.00;;;4.50;99.90;;;;;;5063583;28;20547;-77
2022/02/01 10:52:03;;;;;;;0.10;0.10;;;4.50;99.90;;;;;;5062430;28;20232;-78
2022/02/01 10:54:34;;;;;;;0.77;0.33;;;4.30;99.90;;;;;;5060723;28;20210;-79
2022/02/01 10:57:01;;;;;;;0.50;0.30;;;4.40;99.90;;;;;;5062351;28;20291;-78
2022/02/01 10:59:27;;;;;;;0.70;0.47;;;4.40;99.90;;;;;;5063874;28;20215;-78
2022/02/01 11:01:55;;;;;;;0.10;0.10;;;4.30;99.90;;;;;;5063837;28;20207;-78
2022/02/01 11:04:22;;;;;;;0.27;0.23;;;4.20;99.90;;;;;;5060870;28;20192;-79
2022/02/01 11:06:51;;;;;;;0.23;0.23;;;4.30;99.90;;;;;;5061156;28;20194;-78
2022/02/01 11:09:20;;;;;;;0.20;0.20;;;4.30;99.90;;;;;;5062120;28;20191;-78
2022/02/01 11:11:54;;;;;;;0.00;0.00;;;4.30;99.90;;;;;;5058195;28;20266;-78
2022/02/01 11:14:24;;;;;;;0.10;0.10;;;4.30;99.90;;;;;;5060717;28;20196;-79
2022/02/01 11:17:03;;;;;;;0.40;0.40;;;4.30;99.90;;;;;;5060447;28;20246;-78
2022/02/01 11:19:29;;;;;;;0.10;0.10;;;4.40;99.90;;;;;;5064136;28;20196;-78
2022/02/01 11:21:56;;;;;;;0.30;0.30;;;4.50;99.90;;;;;;5062053;28;20200;-79
2022/02/01 11:24:37;;;;;;;0.57;0.50;;;4.50;99.90;;;;;;5062104;28;20199;-79
2022/02/01 11:27:15;;;;;;;1.80;0.87;;;4.50;99.90;;;;;;5063550;28;20181;-79
2022/02/01 11:30:24;;;;;;;0.20;0.20;;;4.50;99.90;;;;;;5062821;28;20187;-78
2022/02/01 11:32:33;;;;;;;0.20;0.20;;;4.50;99.90;;;;;;5059777;28;20266;-78
2022/02/01 11:35:07;;;;;;;0.10;0.10;;;4.50;99.90;;;;;;5061547;28;20559;-77
2022/02/01 11:37:33;;;;;;;0.20;0.20;;;4.50;99.90;;;;;;5052285;28;20184;-77
2022/02/01 11:40:00;;;;;;;0.10;0.10;;;4.60;99.90;;;;;;5055821;28;20192;-78
2022/02/01 11:42:37;;;;;;;0.13;0.13;;;4.60;99.90;;;;;;5064747;28;20613;-78
2022/02/01 11:45:07;;;;;;;0.10;0.10;;;4.70;99.90;;;;;;5061375;28;20680;-78
2022/02/01 11:47:39;;;;;;;0.40;0.40;;;4.70;99.90;;;;;;5062572;28;20195;-78
2022/02/01 11:50:09;;;;;;;0.20;0.20;;;4.60;99.90;;;;;;5068400;28;20540;-78
2022/02/01 11:52:52;;;;;;;0.00;0.00;;;4.70;99.90;;;;;;5061871;28;20203;-78
2022/02/01 11:55:24;;;;;;;0.10;0.10;;;4.70;99.90;;;;;;5061766;28;20211;-78
2022/02/01 11:57:58;;;;;;;0.20;0.20;;;4.80;99.90;;;;;;5060095;28;21029;-78
2022/02/01 12:00:28;;;;;;;0.10;0.10;;;4.80;99.90;;;;;;5062465;28;20187;-79
2022/02/01 12:02:57;;;;;;;2.53;0.20;;;4.80;99.90;;;;;;5066703;28;20589;-78
2022/02/01 12:05:29;;;;;;;0.10;0.10;;;4.80;99.90;;;;;;5064030;28;20189;-79
2022/02/01 12:08:06;;;;;;;0.17;0.17;;;4.80;99.90;;;;;;5061553;28;21077;-78
2022/02/01 12:10:50;;;;;;;0.30;0.30;;;4.80;99.90;;;;;;5066235;28;20188;-78
2022/02/01 12:13:20;;;;;;;2.17;0.27;;;4.80;99.90;;;;;;5065257;28;20223;-78
2022/02/01 12:15:47;;;;;;;0.10;0.10;;;4.90;99.90;;;;;;5065056;28;20185;-78
2022/02/01 12:18:27;;;;;;;0.17;0.17;;;4.90;99.90;;;;;;5066513;28;20227;-78
2022/02/01 12:21:30;;;;;;;0.20;0.20;;;4.90;99.90;;;;;;5062534;28;20293;-79
2022/02/01 12:23:58;;;;;;;0.10;0.10;;;4.80;99.90;;;;;;5065902;28;20184;-79
2022/02/01 12:26:25;;;;;;;0.10;0.10;;;4.80;99.90;;;;;;5064584;28;20214;-79
2022/02/01 12:28:54;;;;;;;0.20;0.20;;;4.80;99.90;;;;;;5065082;28;20611;-79
2022/02/01 12:31:26;;;;;;;0.27;0.23;;;4.70;99.90;;;;;;5066549;28;20208;-80
2022/02/01 12:33:55;;;;;;;0.10;0.10;;;4.70;99.90;;;;;;5066232;28;20205;-79
2022/02/01 12:36:27;;;;;;;0.10;0.10;;;4.80;99.90;;;;;;5064311;28;20267;-79
2022/02/01 12:39:15;;;;;;;0.10;0.10;;;4.70;99.90;;;;;;5065260;28;20609;-79
2022/02/01 12:41:56;;;;;;;0.10;0.10;;;4.70;99.90;;;;;;5065954;28;20234;-79
2022/02/01 12:47:06;;;;;;;0.20;0.20;;;4.70;99.90;;;;;;5064037;28;20572;-79
2022/02/01 12:49:33;;;;;;;0.20;0.20;;;4.70;99.90;;;;;;5066051;28;20182;-80
2022/02/01 12:52:00;;;;;;;0.10;0.10;;;4.60;99.90;;;;;;5064922;28;20784;-79
2022/02/01 12:54:37;;;;;;;0.10;0.10;;;4.60;99.90;;;;;;5061717;28;20228;-79
2022/02/01 12:57:13;;;;;;;1.63;0.33;;;4.60;99.90;;;;;;5073100;28;20237;-79
2022/02/01 12:59:50;;;;;;;0.20;0.20;;;4.60;99.90;;;;;;5063686;28;20265;-79
2022/02/01 13:02:28;;;;;;;0.10;0.10;;;4.50;99.90;;;;;;5063011;28;20215;-79
2022/02/01 13:05:03;;;;;;;0.20;0.20;;;4.40;99.90;;;;;;5064775;28;20187;-79
2022/02/01 13:15:54;;;;;;;0.10;0.10;;;4.40;99.90;;;;;;5065087;28;20256;-79
2022/02/01 13:21:03;;;;;;;0.10;0.10;;;4.40;99.90;;;;;;5064794;28;20803;-79
2022/02/01 13:23:51;;;;;;;0.17;0.17;;;4.40;99.90;;;;;;5067331;28;20218;-79
2022/02/01 13:26:19;;;;;;;0.10;0.10;;;4.40;99.90;;;;;;5067181;28;20237;-79
2022/02/01 13:29:15;;;;;;;0.20;0.20;;;4.50;99.90;;;;;;5065774;28;20236;-79
2022/02/01 13:31:49;;;;;;;0.13;0.13;;;4.50;99.90;;;;;;5063829;28;20209;-79
2022/02/01 13:34:23;;;;;;;0.40;0.20;;;4.40;99.90;;;;;;5066157;28;20261;-79
2022/02/01 13:36:54;;;;;;;0.40;0.40;;;4.50;99.90;;;;;;5063676;28;20528;-79
2022/02/01 13:39:26;;;;;;;0.10;0.10;;;4.50;99.90;;;;;;5061472;28;20209;-79
2022/02/01 13:41:59;;;;;;;0.43;0.43;;;4.50;99.90;;;;;;5063323;28;20620;-79
2022/02/01 13:44:31;;;;;;;0.10;0.10;;;4.50;99.90;;;;;;5064880;28;20256;-79
2022/02/01 13:47:08;;;;;;;0.10;0.10;;;4.50;99.90;;;;;;5064083;28;21050;-79
2022/02/01 13:49:36;;;;;;;1.43;0.87;;;4.50;99.90;;;;;;5064428;28;20184;-79
2022/02/01 13:52:06;;;;;;;3.63;0.40;;;4.50;99.90;;;;;;5062282;28;20200;-78
2022/02/01 13:54:43;;;;;;;0.10;0.10;;;4.50;99.90;;;;;;5063964;28;21077;-79
2022/02/01 13:57:14;;;;;;;0.10;0.10;;;4.50;99.90;;;;;;5063123;28;20216;-79
2022/02/01 13:59:41;;;;;;;0.20;0.20;;;4.50;99.90;;;;;;5064720;28;20193;-78
2022/02/01 14:02:10;;;;;;;0.40;0.40;;;4.60;99.90;;;;;;5065511;28;20254;-79
2022/02/01 14:04:49;;;;;;;0.07;0.07;;;4.60;99.90;;;;;;5062064;28;20280;-79
2022/02/01 14:28:55;;;;;;;0.10;0.10;;;4.80;99.90;;;;;;5066257;28;20262;-82
2022/02/01 14:34:13;;;;;;;0.10;0.10;;;4.80;99.90;;;;;;5066240;28;20212;-78
2022/02/01 14:36:41;;;;;;;0.10;0.10;;;4.70;99.90;;;;;;5066746;28;20165;-79
2022/02/01 14:39:15;;;;;;;0.10;0.10;;;4.70;99.90;;;;;;5066610;28;20169;-79
2022/02/01 14:46:53;;;;;;;0.20;0.13;;;4.90;99.90;;;;;;5067396;28;20243;-79
2022/02/01 14:49:23;;;;;;;0.10;0.10;;;5.00;99.90;;;;;;5065108;28;20271;-79
2022/02/01 14:51:51;;;;;;;0.10;0.10;;;5.00;99.90;;;;;;5066883;28;20252;-80
2022/02/01 14:54:19;;;;;;;0.10;0.10;;;5.10;99.90;;;;;;5066592;28;20200;-78
2022/02/01 14:56:51;;;;;;;0.10;0.10;;;5.00;99.90;;;;;;5066672;28;20212;-79
2022/02/01 15:13:00;;;;;;;0.20;0.20;;;5.20;99.90;;;;;;5064637;28;20199;-79
2022/02/01 15:15:26;;;;;;;0.10;0.10;;;5.20;99.90;;;;;;5059804;28;20218;-78
2022/02/01 15:17:52;;;;;;;0.00;0.00;;;5.20;99.90;;;;;;5058778;28;20182;-78
2022/02/01 15:20:18;;;;;;;0.10;0.10;;;5.20;99.90;;;;;;5061973;28;20184;-78
2022/02/01 15:22:45;;;;;;;0.10;0.10;;;5.30;99.90;;;;;;5061811;28;22017;-78
2022/02/01 15:25:13;;;;;;;0.10;0.10;;;5.30;99.90;;;;;;5063715;28;20644;-78
2022/02/01 15:27:39;;;;;;;0.10;0.10;;;5.30;99.90;;;;;;5063223;28;20181;-79
2022/02/01 15:30:05;;;;;;;0.10;0.10;;;5.30;99.90;;;;;;5064352;28;20206;-78
2022/02/01 15:32:31;;;;;;;0.10;0.10;;;5.30;99.90;;;;;;5060463;28;20853;-79